sensor_id;sensor_type;location;lat;lon;timestamp;P1;durP1;ratioP1;P2;durP2;ratioP2
22449;SDS011;11392;57.390;-2.468;2023-08-06T00:01:49;4.20;;;3.40;;
22449;SDS011;11392;57.390;-2.468;2023-08-06T00:04:18;5.95;;;3.47;;
22449;SDS011;11392;57.390;-2.468;2023-08-06T00:06:45;3.17;;;2.88;;
22449;SDS011;11392;57.390;-2.468;2023-08-06T00:09:13;3.70;;;2.55;;
22449;SDS011;11392;57.390;-2.468;2023-08-06T00:11:40;2.55;;;2.00;;
22449;SDS011;11392;57.390;-2.468;2023-08-06T00:14:07;1.70;;;1.58;;
22449;SDS011;11392;57.390;-2.468;2023-08-06T00:16:34;1.60;;;1.50;;
22449;SDS011;11392;57.390;-2.468;2023-08-06T00:19:01;3.72;;;1.70;;
22449;SDS011;11392;57.390;-2.468;2023-08-06T00:21:28;1.98;;;1.77;;
22449;SDS011;11392;57.390;-2.468;2023-08-06T00:23:55;2.80;;;1.70;;
22449;SDS011;11392;57.390;-2.468;2023-08-06T00:26:22;3.53;;;1.77;;
22449;SDS011;11392;57.390;-2.468;2023-08-06T00:28:50;2.22;;;1.70;;
22449;SDS011;11392;57.390;-2.468;2023-08-06T00:31:18;2.25;;;1.95;;
22449;SDS011;11392;57.390;-2.468;2023-08-06T00:33:45;2.88;;;2.03;;
22449;SDS011;11392;57.390;-2.468;2023-08-06T00:36:12;2.58;;;1.73;;
22449;SDS011;11392;57.390;-2.468;2023-08-06T00:38:39;1.92;;;1.70;;
22449;SDS011;11392;57.390;-2.468;2023-08-06T00:41:05;2.58;;;2.20;;
22449;SDS011;11392;57.390;-2.468;2023-08-06T00:43:32;2.95;;;1.88;;
22449;SDS011;11392;57.390;-2.468;2023-08-06T00:45:59;3.15;;;2.17;;
22449;SDS011;11392;57.390;-2.468;2023-08-06T00:48:27;2.60;;;2.00;;
22449;SDS011;11392;57.390;-2.468;2023-08-06T00:50:54;2.65;;;1.85;;
22449;SDS011;11392;57.390;-2.468;2023-08-06T00:53:21;2.08;;;1.85;;
22449;SDS011;11392;57.390;-2.468;2023-08-06T00:55:48;3.47;;;2.08;;
22449;SDS011;11392;57.390;-2.468;2023-08-06T00:58:16;2.05;;;1.80;;
22449;SDS011;11392;57.390;-2.468;2023-08-06T01:00:43;2.05;;;1.85;;
22449;SDS011;11392;57.390;-2.468;2023-08-06T01:03:10;2.05;;;1.48;;
22449;SDS011;11392;57.390;-2.468;2023-08-06T01:05:37;2.30;;;2.08;;
22449;SDS011;11392;57.390;-2.468;2023-08-06T01:11:25;4.05;;;1.73;;
22449;SDS011;11392;57.390;-2.468;2023-08-06T01:13:58;2.50;;;1.60;;
22449;SDS011;11392;57.390;-2.468;2023-08-06T01:16:32;2.67;;;1.77;;
22449;SDS011;11392;57.390;-2.468;2023-08-06T01:19:00;2.58;;;2.10;;
22449;SDS011;11392;57.390;-2.468;2023-08-06T01:21:27;2.22;;;2.00;;
22449;SDS011;11392;57.390;-2.468;2023-08-06T01:23:54;1.95;;;1.80;;
22449;SDS011;11392;57.390;-2.468;2023-08-06T01:26:30;2.17;;;1.98;;
22449;SDS011;11392;57.390;-2.468;2023-08-06T01:31:51;2.40;;;1.77;;
22449;SDS011;11392;57.390;-2.468;2023-08-06T01:34:21;2.78;;;1.98;;
22449;SDS011;11392;57.390;-2.468;2023-08-06T01:36:50;3.00;;;1.90;;
22449;SDS011;11392;57.390;-2.468;2023-08-06T01:39:18;2.33;;;1.70;;
22449;SDS011;11392;57.390;-2.468;2023-08-06T01:41:48;3.75;;;1.80;;
22449;SDS011;11392;57.390;-2.468;2023-08-06T01:44:16;2.20;;;2.00;;
22449;SDS011;11392;57.390;-2.468;2023-08-06T01:46:43;2.22;;;2.03;;
22449;SDS011;11392;57.390;-2.468;2023-08-06T01:49:10;1.85;;;1.70;;
22449;SDS011;11392;57.390;-2.468;2023-08-06T01:51:37;3.05;;;1.70;;
22449;SDS011;11392;57.390;-2.468;2023-08-06T01:54:04;3.15;;;1.75;;
22449;SDS011;11392;57.390;-2.468;2023-08-06T01:56:31;2.28;;;2.08;;
22449;SDS011;11392;57.390;-2.468;2023-08-06T01:58:58;2.17;;;1.55;;
22449;SDS011;11392;57.390;-2.468;2023-08-06T02:01:27;2.22;;;1.40;;
22449;SDS011;11392;57.390;-2.468;2023-08-06T02:03:54;2.60;;;1.60;;
22449;SDS011;11392;57.390;-2.468;2023-08-06T02:06:20;2.28;;;1.77;;
22449;SDS011;11392;57.390;-2.468;2023-08-06T02:08:47;2.50;;;1.88;;
22449;SDS011;11392;57.390;-2.468;2023-08-06T02:11:14;1.80;;;1.65;;
22449;SDS011;11392;57.390;-2.468;2023-08-06T02:13:41;1.70;;;1.60;;
22449;SDS011;11392;57.390;-2.468;2023-08-06T02:16:08;1.63;;;1.52;;
22449;SDS011;11392;57.390;-2.468;2023-08-06T02:18:35;2.55;;;1.70;;
22449;SDS011;11392;57.390;-2.468;2023-08-06T02:21:02;1.83;;;1.73;;
22449;SDS011;11392;57.390;-2.468;2023-08-06T02:23:29;3.47;;;1.73;;
22449;SDS011;11392;57.390;-2.468;2023-08-06T02:26:00;1.92;;;1.73;;
22449;SDS011;11392;57.390;-2.468;2023-08-06T02:28:28;3.05;;;1.50;;
22449;SDS011;11392;57.390;-2.468;2023-08-06T02:30:56;2.75;;;1.80;;
22449;SDS011;11392;57.390;-2.468;2023-08-06T02:33:24;1.95;;;1.75;;
22449;SDS011;11392;57.390;-2.468;2023-08-06T02:35:51;1.58;;;1.40;;
22449;SDS011;11392;57.390;-2.468;2023-08-06T02:38:24;3.78;;;2.42;;
22449;SDS011;11392;57.390;-2.468;2023-08-06T02:40:51;2.10;;;1.80;;
22449;SDS011;11392;57.390;-2.468;2023-08-06T02:43:18;2.55;;;1.90;;
22449;SDS011;11392;57.390;-2.468;2023-08-06T02:45:45;2.83;;;2.15;;
22449;SDS011;11392;57.390;-2.468;2023-08-06T02:48:13;2.42;;;2.15;;
22449;SDS011;11392;57.390;-2.468;2023-08-06T02:50:40;3.05;;;2.00;;
22449;SDS011;11392;57.390;-2.468;2023-08-06T02:53:08;2.17;;;1.85;;
22449;SDS011;11392;57.390;-2.468;2023-08-06T02:55:35;4.53;;;2.00;;
22449;SDS011;11392;57.390;-2.468;2023-08-06T02:58:02;3.30;;;1.77;;
22449;SDS011;11392;57.390;-2.468;2023-08-06T03:00:29;3.05;;;2.00;;
22449;SDS011;11392;57.390;-2.468;2023-08-06T03:02:56;2.88;;;1.90;;
22449;SDS011;11392;57.390;-2.468;2023-08-06T03:05:23;2.75;;;2.00;;
22449;SDS011;11392;57.390;-2.468;2023-08-06T03:07:50;2.20;;;2.00;;
22449;SDS011;11392;57.390;-2.468;2023-08-06T03:10:18;3.38;;;2.20;;
22449;SDS011;11392;57.390;-2.468;2023-08-06T03:12:46;2.00;;;1.80;;
22449;SDS011;11392;57.390;-2.468;2023-08-06T03:15:13;3.17;;;2.13;;
22449;SDS011;11392;57.390;-2.468;2023-08-06T03:17:40;2.33;;;2.00;;
22449;SDS011;11392;57.390;-2.468;2023-08-06T03:20:07;2.92;;;1.92;;
22449;SDS011;11392;57.390;-2.468;2023-08-06T03:22:35;2.83;;;2.03;;
22449;SDS011;11392;57.390;-2.468;2023-08-06T03:25:02;2.60;;;1.90;;
22449;SDS011;11392;57.390;-2.468;2023-08-06T03:27:29;3.28;;;2.00;;
22449;SDS011;11392;57.390;-2.468;2023-08-06T03:29:56;2.00;;;1.80;;
22449;SDS011;11392;57.390;-2.468;2023-08-06T03:32:23;2.15;;;1.75;;
22449;SDS011;11392;57.390;-2.468;2023-08-06T03:34:50;3.15;;;1.98;;
22449;SDS011;11392;57.390;-2.468;2023-08-06T03:37:17;2.80;;;2.25;;
22449;SDS011;11392;57.390;-2.468;2023-08-06T03:39:44;4.13;;;2.13;;
22449;SDS011;11392;57.390;-2.468;2023-08-06T03:42:11;2.50;;;1.98;;
22449;SDS011;11392;57.390;-2.468;2023-08-06T03:44:38;2.42;;;2.05;;
22449;SDS011;11392;57.390;-2.468;2023-08-06T03:47:05;2.22;;;1.83;;
22449;SDS011;11392;57.390;-2.468;2023-08-06T03:49:32;5.18;;;2.60;;
22449;SDS011;11392;57.390;-2.468;2023-08-06T03:51:59;2.72;;;2.03;;
22449;SDS011;11392;57.390;-2.468;2023-08-06T03:54:26;2.40;;;1.73;;
22449;SDS011;11392;57.390;-2.468;2023-08-06T03:56:53;5.15;;;3.05;;
22449;SDS011;11392;57.390;-2.468;2023-08-06T03:59:20;2.40;;;2.15;;
22449;SDS011;11392;57.390;-2.468;2023-08-06T04:01:47;2.40;;;2.10;;
22449;SDS011;11392;57.390;-2.468;2023-08-06T04:04:14;3.67;;;2.10;;
22449;SDS011;11392;57.390;-2.468;2023-08-06T04:06:41;2.30;;;2.10;;
22449;SDS011;11392;57.390;-2.468;2023-08-06T04:09:08;2.55;;;2.13;;
22449;SDS011;11392;57.390;-2.468;2023-08-06T04:11:35;3.17;;;2.20;;
22449;SDS011;11392;57.390;-2.468;2023-08-06T04:14:02;3.85;;;2.13;;
22449;SDS011;11392;57.390;-2.468;2023-08-06T04:16:29;3.70;;;2.72;;
22449;SDS011;11392;57.390;-2.468;2023-08-06T04:18:56;2.35;;;2.15;;
22449;SDS011;11392;57.390;-2.468;2023-08-06T04:21:24;4.57;;;2.47;;
22449;SDS011;11392;57.390;-2.468;2023-08-06T04:23:51;2.85;;;2.08;;
22449;SDS011;11392;57.390;-2.468;2023-08-06T04:26:18;3.33;;;2.25;;
22449;SDS011;11392;57.390;-2.468;2023-08-06T04:28:45;3.78;;;2.40;;
22449;SDS011;11392;57.390;-2.468;2023-08-06T04:31:12;3.42;;;2.33;;
22449;SDS011;11392;57.390;-2.468;2023-08-06T04:33:39;3.30;;;2.20;;
22449;SDS011;11392;57.390;-2.468;2023-08-06T04:36:06;3.25;;;2.40;;
22449;SDS011;11392;57.390;-2.468;2023-08-06T04:38:33;4.20;;;2.60;;
22449;SDS011;11392;57.390;-2.468;2023-08-06T04:41:02;2.20;;;2.00;;
22449;SDS011;11392;57.390;-2.468;2023-08-06T04:43:29;3.58;;;2.33;;
22449;SDS011;11392;57.390;-2.468;2023-08-06T04:45:56;4.07;;;2.20;;
22449;SDS011;11392;57.390;-2.468;2023-08-06T04:48:24;2.95;;;2.47;;
22449;SDS011;11392;57.390;-2.468;2023-08-06T04:50:50;2.80;;;2.47;;
22449;SDS011;11392;57.390;-2.468;2023-08-06T04:53:18;3.90;;;3.05;;
22449;SDS011;11392;57.390;-2.468;2023-08-06T04:55:45;3.65;;;2.72;;
22449;SDS011;11392;57.390;-2.468;2023-08-06T04:58:12;4.60;;;3.28;;
22449;SDS011;11392;57.390;-2.468;2023-08-06T05:00:40;2.90;;;2.50;;
22449;SDS011;11392;57.390;-2.468;2023-08-06T05:03:07;3.00;;;2.50;;
22449;SDS011;11392;57.390;-2.468;2023-08-06T05:05:34;3.20;;;2.55;;
22449;SDS011;11392;57.390;-2.468;2023-08-06T05:08:01;4.57;;;2.50;;
22449;SDS011;11392;57.390;-2.468;2023-08-06T05:10:28;3.92;;;2.60;;
22449;SDS011;11392;57.390;-2.468;2023-08-06T05:12:55;2.97;;;2.42;;
22449;SDS011;11392;57.390;-2.468;2023-08-06T05:15:22;3.58;;;2.50;;
22449;SDS011;11392;57.390;-2.468;2023-08-06T05:17:51;3.67;;;2.80;;
22449;SDS011;11392;57.390;-2.468;2023-08-06T05:20:20;2.28;;;1.85;;
22449;SDS011;11392;57.390;-2.468;2023-08-06T05:22:47;5.25;;;2.67;;
22449;SDS011;11392;57.390;-2.468;2023-08-06T05:25:14;3.65;;;2.65;;
22449;SDS011;11392;57.390;-2.468;2023-08-06T05:27:41;3.60;;;2.60;;
22449;SDS011;11392;57.390;-2.468;2023-08-06T05:30:08;2.78;;;2.08;;
22449;SDS011;11392;57.390;-2.468;2023-08-06T05:32:36;3.40;;;2.70;;
22449;SDS011;11392;57.390;-2.468;2023-08-06T05:35:03;4.22;;;2.60;;
22449;SDS011;11392;57.390;-2.468;2023-08-06T05:37:31;3.45;;;2.67;;
22449;SDS011;11392;57.390;-2.468;2023-08-06T05:39:58;3.33;;;2.60;;
22449;SDS011;11392;57.390;-2.468;2023-08-06T05:42:24;3.97;;;2.78;;
22449;SDS011;11392;57.390;-2.468;2023-08-06T05:44:51;2.63;;;2.42;;
22449;SDS011;11392;57.390;-2.468;2023-08-06T05:47:18;3.70;;;2.60;;
22449;SDS011;11392;57.390;-2.468;2023-08-06T05:49:46;3.15;;;2.85;;
22449;SDS011;11392;57.390;-2.468;2023-08-06T05:52:13;5.95;;;2.83;;
22449;SDS011;11392;57.390;-2.468;2023-08-06T05:54:39;4.78;;;3.47;;
22449;SDS011;11392;57.390;-2.468;2023-08-06T05:57:07;2.97;;;2.33;;
22449;SDS011;11392;57.390;-2.468;2023-08-06T05:59:34;3.15;;;2.65;;
22449;SDS011;11392;57.390;-2.468;2023-08-06T06:02:01;3.92;;;2.78;;
22449;SDS011;11392;57.390;-2.468;2023-08-06T06:04:28;2.95;;;2.63;;
22449;SDS011;11392;57.390;-2.468;2023-08-06T06:06:55;3.83;;;2.63;;
22449;SDS011;11392;57.390;-2.468;2023-08-06T06:09:22;2.97;;;2.67;;
22449;SDS011;11392;57.390;-2.468;2023-08-06T06:11:49;4.75;;;2.92;;
22449;SDS011;11392;57.390;-2.468;2023-08-06T06:14:17;4.47;;;3.10;;
22449;SDS011;11392;57.390;-2.468;2023-08-06T06:16:45;2.55;;;2.22;;
22449;SDS011;11392;57.390;-2.468;2023-08-06T06:19:12;4.75;;;2.90;;
22449;SDS011;11392;57.390;-2.468;2023-08-06T06:21:39;4.10;;;2.70;;
22449;SDS011;11392;57.390;-2.468;2023-08-06T06:24:06;5.35;;;2.80;;
22449;SDS011;11392;57.390;-2.468;2023-08-06T06:26:34;4.18;;;2.70;;
22449;SDS011;11392;57.390;-2.468;2023-08-06T06:29:01;4.22;;;2.70;;
22449;SDS011;11392;57.390;-2.468;2023-08-06T06:31:28;3.90;;;3.05;;
22449;SDS011;11392;57.390;-2.468;2023-08-06T06:33:56;4.50;;;2.78;;
22449;SDS011;11392;57.390;-2.468;2023-08-06T06:36:23;2.80;;;2.55;;
22449;SDS011;11392;57.390;-2.468;2023-08-06T06:38:50;2.90;;;2.67;;
22449;SDS011;11392;57.390;-2.468;2023-08-06T06:41:17;3.40;;;2.78;;
22449;SDS011;11392;57.390;-2.468;2023-08-06T06:43:44;3.05;;;2.35;;
22449;SDS011;11392;57.390;-2.468;2023-08-06T06:46:11;3.80;;;3.03;;
22449;SDS011;11392;57.390;-2.468;2023-08-06T06:48:38;3.92;;;2.60;;
22449;SDS011;11392;57.390;-2.468;2023-08-06T06:51:05;3.38;;;2.72;;
22449;SDS011;11392;57.390;-2.468;2023-08-06T06:53:32;2.15;;;1.90;;
22449;SDS011;11392;57.390;-2.468;2023-08-06T06:56:03;3.50;;;2.22;;
22449;SDS011;11392;57.390;-2.468;2023-08-06T06:58:31;2.35;;;2.15;;
22449;SDS011;11392;57.390;-2.468;2023-08-06T07:00:59;2.47;;;1.80;;
22449;SDS011;11392;57.390;-2.468;2023-08-06T07:03:26;2.80;;;2.17;;
22449;SDS011;11392;57.390;-2.468;2023-08-06T07:05:56;2.78;;;1.73;;
22449;SDS011;11392;57.390;-2.468;2023-08-06T07:08:25;2.10;;;1.85;;
22449;SDS011;11392;57.390;-2.468;2023-08-06T07:11:05;1.45;;;1.35;;
22449;SDS011;11392;57.390;-2.468;2023-08-06T07:13:33;4.13;;;2.10;;
22449;SDS011;11392;57.390;-2.468;2023-08-06T07:16:01;2.28;;;2.08;;
22449;SDS011;11392;57.390;-2.468;2023-08-06T07:18:28;2.03;;;1.73;;
22449;SDS011;11392;57.390;-2.468;2023-08-06T07:20:55;1.90;;;1.58;;
22449;SDS011;11392;57.390;-2.468;2023-08-06T07:23:23;2.47;;;1.50;;
22449;SDS011;11392;57.390;-2.468;2023-08-06T07:25:51;1.70;;;1.52;;
22449;SDS011;11392;57.390;-2.468;2023-08-06T07:28:18;1.50;;;1.40;;
22449;SDS011;11392;57.390;-2.468;2023-08-06T07:30:45;1.95;;;1.73;;
22449;SDS011;11392;57.390;-2.468;2023-08-06T07:33:13;1.60;;;1.50;;
22449;SDS011;11392;57.390;-2.468;2023-08-06T07:35:40;2.25;;;1.45;;
22449;SDS011;11392;57.390;-2.468;2023-08-06T07:38:07;1.80;;;1.40;;
22449;SDS011;11392;57.390;-2.468;2023-08-06T07:40:35;1.73;;;1.48;;
22449;SDS011;11392;57.390;-2.468;2023-08-06T07:43:03;1.50;;;1.40;;
22449;SDS011;11392;57.390;-2.468;2023-08-06T07:45:34;2.45;;;1.52;;
22449;SDS011;11392;57.390;-2.468;2023-08-06T07:48:02;1.40;;;1.30;;
22449;SDS011;11392;57.390;-2.468;2023-08-06T07:50:30;2.08;;;1.63;;
22449;SDS011;11392;57.390;-2.468;2023-08-06T07:52:57;2.90;;;1.75;;
22449;SDS011;11392;57.390;-2.468;2023-08-06T07:55:25;2.58;;;1.58;;
22449;SDS011;11392;57.390;-2.468;2023-08-06T07:57:52;2.28;;;1.60;;
22449;SDS011;11392;57.390;-2.468;2023-08-06T08:00:20;2.22;;;1.58;;
22449;SDS011;11392;57.390;-2.468;2023-08-06T08:02:47;1.70;;;1.60;;
22449;SDS011;11392;57.390;-2.468;2023-08-06T08:05:14;2.40;;;1.80;;
22449;SDS011;11392;57.390;-2.468;2023-08-06T08:07:41;2.28;;;1.90;;
22449;SDS011;11392;57.390;-2.468;2023-08-06T08:10:08;3.08;;;1.70;;
22449;SDS011;11392;57.390;-2.468;2023-08-06T08:12:35;3.10;;;1.77;;
22449;SDS011;11392;57.390;-2.468;2023-08-06T08:15:02;2.40;;;1.80;;
22449;SDS011;11392;57.390;-2.468;2023-08-06T08:17:30;1.45;;;1.35;;
22449;SDS011;11392;57.390;-2.468;2023-08-06T08:19:57;2.75;;;2.00;;
22449;SDS011;11392;57.390;-2.468;2023-08-06T08:22:24;2.45;;;1.83;;
22449;SDS011;11392;57.390;-2.468;2023-08-06T08:24:51;2.00;;;1.70;;
22449;SDS011;11392;57.390;-2.468;2023-08-06T08:27:18;2.08;;;1.73;;
22449;SDS011;11392;57.390;-2.468;2023-08-06T08:29:45;2.08;;;1.65;;
22449;SDS011;11392;57.390;-2.468;2023-08-06T08:32:12;3.03;;;1.88;;
22449;SDS011;11392;57.390;-2.468;2023-08-06T08:34:39;2.30;;;2.00;;
22449;SDS011;11392;57.390;-2.468;2023-08-06T08:37:06;3.42;;;2.03;;
22449;SDS011;11392;57.390;-2.468;2023-08-06T08:39:33;2.03;;;1.88;;
22449;SDS011;11392;57.390;-2.468;2023-08-06T08:42:00;2.05;;;1.85;;
22449;SDS011;11392;57.390;-2.468;2023-08-06T08:44:28;1.70;;;1.60;;
22449;SDS011;11392;57.390;-2.468;2023-08-06T08:46:58;2.05;;;1.85;;
22449;SDS011;11392;57.390;-2.468;2023-08-06T08:49:26;2.08;;;1.83;;
22449;SDS011;11392;57.390;-2.468;2023-08-06T08:51:55;2.10;;;1.90;;
22449;SDS011;11392;57.390;-2.468;2023-08-06T08:54:23;2.08;;;1.88;;
22449;SDS011;11392;57.390;-2.468;2023-08-06T08:56:51;2.17;;;1.67;;
22449;SDS011;11392;57.390;-2.468;2023-08-06T08:59:19;1.77;;;1.65;;
22449;SDS011;11392;57.390;-2.468;2023-08-06T09:01:46;2.00;;;1.83;;
22449;SDS011;11392;57.390;-2.468;2023-08-06T09:04:18;3.25;;;2.05;;
22449;SDS011;11392;57.390;-2.468;2023-08-06T09:06:47;3.10;;;2.80;;
22449;SDS011;11392;57.390;-2.468;2023-08-06T09:09:20;3.13;;;2.60;;
22449;SDS011;11392;57.390;-2.468;2023-08-06T09:11:52;3.38;;;2.40;;
22449;SDS011;11392;57.390;-2.468;2023-08-06T09:14:24;3.95;;;2.20;;
22449;SDS011;11392;57.390;-2.468;2023-08-06T09:16:51;5.00;;;2.60;;
22449;SDS011;11392;57.390;-2.468;2023-08-06T09:19:18;2.25;;;2.05;;
22449;SDS011;11392;57.390;-2.468;2023-08-06T09:21:46;2.92;;;1.90;;
22449;SDS011;11392;57.390;-2.468;2023-08-06T09:24:15;2.88;;;2.55;;
22449;SDS011;11392;57.390;-2.468;2023-08-06T09:26:45;3.58;;;2.40;;
22449;SDS011;11392;57.390;-2.468;2023-08-06T09:29:12;6.47;;;2.45;;
22449;SDS011;11392;57.390;-2.468;2023-08-06T09:31:41;2.67;;;2.20;;
22449;SDS011;11392;57.390;-2.468;2023-08-06T09:34:16;4.45;;;2.63;;
22449;SDS011;11392;57.390;-2.468;2023-08-06T09:36:51;2.17;;;1.75;;
22449;SDS011;11392;57.390;-2.468;2023-08-06T09:39:20;2.10;;;1.90;;
22449;SDS011;11392;57.390;-2.468;2023-08-06T09:41:48;3.08;;;2.70;;
22449;SDS011;11392;57.390;-2.468;2023-08-06T09:44:24;2.75;;;2.47;;
22449;SDS011;11392;57.390;-2.468;2023-08-06T09:46:52;2.42;;;2.22;;
22449;SDS011;11392;57.390;-2.468;2023-08-06T09:49:27;3.15;;;2.85;;
22449;SDS011;11392;57.390;-2.468;2023-08-06T09:52:14;3.00;;;2.63;;
22449;SDS011;11392;57.390;-2.468;2023-08-06T09:54:44;3.03;;;2.42;;
22449;SDS011;11392;57.390;-2.468;2023-08-06T09:57:12;3.65;;;3.03;;
22449;SDS011;11392;57.390;-2.468;2023-08-06T09:59:41;3.75;;;2.58;;
22449;SDS011;11392;57.390;-2.468;2023-08-06T10:02:11;4.20;;;2.50;;
22449;SDS011;11392;57.390;-2.468;2023-08-06T10:04:42;2.90;;;2.03;;
22449;SDS011;11392;57.390;-2.468;2023-08-06T10:07:21;3.00;;;2.60;;
22449;SDS011;11392;57.390;-2.468;2023-08-06T10:09:49;2.80;;;2.50;;
22449;SDS011;11392;57.390;-2.468;2023-08-06T10:12:16;4.00;;;2.67;;
22449;SDS011;11392;57.390;-2.468;2023-08-06T10:14:46;3.10;;;2.80;;
22449;SDS011;11392;57.390;-2.468;2023-08-06T10:17:15;2.88;;;2.58;;
22449;SDS011;11392;57.390;-2.468;2023-08-06T10:19:43;2.50;;;2.00;;
22449;SDS011;11392;57.390;-2.468;2023-08-06T10:22:11;2.42;;;2.00;;
22449;SDS011;11392;57.390;-2.468;2023-08-06T10:24:58;2.70;;;2.50;;
22449;SDS011;11392;57.390;-2.468;2023-08-06T10:32:53;2.95;;;2.30;;
22449;SDS011;11392;57.390;-2.468;2023-08-06T10:38:20;4.00;;;2.50;;
22449;SDS011;11392;57.390;-2.468;2023-08-06T10:40:49;2.75;;;2.30;;
22449;SDS011;11392;57.390;-2.468;2023-08-06T10:43:27;3.05;;;2.67;;
22449;SDS011;11392;57.390;-2.468;2023-08-06T10:46:02;2.50;;;2.30;;
22449;SDS011;11392;57.390;-2.468;2023-08-06T10:51:07;2.42;;;2.15;;
22449;SDS011;11392;57.390;-2.468;2023-08-06T10:53:35;3.00;;;2.15;;
22449;SDS011;11392;57.390;-2.468;2023-08-06T10:56:13;3.25;;;2.53;;
22449;SDS011;11392;57.390;-2.468;2023-08-06T10:58:40;2.40;;;2.20;;
22449;SDS011;11392;57.390;-2.468;2023-08-06T11:01:08;2.03;;;1.83;;
22449;SDS011;11392;57.390;-2.468;2023-08-06T11:03:36;2.03;;;1.92;;
22449;SDS011;11392;57.390;-2.468;2023-08-06T11:06:04;3.30;;;2.50;;
22449;SDS011;11392;57.390;-2.468;2023-08-06T11:08:34;2.47;;;2.17;;
22449;SDS011;11392;57.390;-2.468;2023-08-06T11:11:12;3.55;;;2.60;;
22449;SDS011;11392;57.390;-2.468;2023-08-06T11:13:41;2.63;;;2.25;;
22449;SDS011;11392;57.390;-2.468;2023-08-06T11:16:09;2.58;;;2.17;;
22449;SDS011;11392;57.390;-2.468;2023-08-06T11:18:37;2.65;;;2.45;;
22449;SDS011;11392;57.390;-2.468;2023-08-06T11:21:04;3.00;;;2.60;;
22449;SDS011;11392;57.390;-2.468;2023-08-06T11:23:31;2.95;;;2.08;;
22449;SDS011;11392;57.390;-2.468;2023-08-06T11:25:58;3.17;;;2.30;;
22449;SDS011;11392;57.390;-2.468;2023-08-06T11:28:25;3.30;;;2.22;;
22449;SDS011;11392;57.390;-2.468;2023-08-06T11:30:53;2.00;;;1.88;;
22449;SDS011;11392;57.390;-2.468;2023-08-06T11:33:25;2.40;;;2.20;;
22449;SDS011;11392;57.390;-2.468;2023-08-06T11:35:54;2.45;;;2.15;;
22449;SDS011;11392;57.390;-2.468;2023-08-06T11:38:24;1.95;;;1.85;;
22449;SDS011;11392;57.390;-2.468;2023-08-06T11:40:53;2.33;;;2.13;;
22449;SDS011;11392;57.390;-2.468;2023-08-06T11:43:21;2.72;;;2.00;;
22449;SDS011;11392;57.390;-2.468;2023-08-06T11:45:49;2.35;;;2.15;;
22449;SDS011;11392;57.390;-2.468;2023-08-06T11:48:17;2.92;;;2.28;;
22449;SDS011;11392;57.390;-2.468;2023-08-06T11:50:44;2.83;;;2.42;;
22449;SDS011;11392;57.390;-2.468;2023-08-06T11:53:12;2.50;;;1.95;;
22449;SDS011;11392;57.390;-2.468;2023-08-06T11:55:41;2.30;;;2.10;;
22449;SDS011;11392;57.390;-2.468;2023-08-06T11:58:09;2.85;;;2.20;;
22449;SDS011;11392;57.390;-2.468;2023-08-06T12:00:39;1.90;;;1.70;;
22449;SDS011;11392;57.390;-2.468;2023-08-06T12:03:06;2.80;;;2.08;;
22449;SDS011;11392;57.390;-2.468;2023-08-06T12:05:33;2.20;;;1.90;;
22449;SDS011;11392;57.390;-2.468;2023-08-06T12:08:01;1.95;;;1.83;;
22449;SDS011;11392;57.390;-2.468;2023-08-06T12:10:30;2.30;;;2.10;;
22449;SDS011;11392;57.390;-2.468;2023-08-06T12:12:58;2.58;;;2.08;;
22449;SDS011;11392;57.390;-2.468;2023-08-06T12:15:26;2.72;;;1.95;;
22449;SDS011;11392;57.390;-2.468;2023-08-06T12:17:53;2.50;;;2.17;;
22449;SDS011;11392;57.390;-2.468;2023-08-06T12:20:20;2.30;;;2.10;;
22449;SDS011;11392;57.390;-2.468;2023-08-06T12:22:47;1.73;;;1.58;;
22449;SDS011;11392;57.390;-2.468;2023-08-06T12:25:14;2.00;;;1.80;;
22449;SDS011;11392;57.390;-2.468;2023-08-06T12:27:42;1.80;;;1.70;;
22449;SDS011;11392;57.390;-2.468;2023-08-06T12:30:11;1.77;;;1.63;;
22449;SDS011;11392;57.390;-2.468;2023-08-06T12:32:39;2.45;;;1.90;;
22449;SDS011;11392;57.390;-2.468;2023-08-06T12:35:06;2.58;;;2.10;;
22449;SDS011;11392;57.390;-2.468;2023-08-06T12:37:34;2.47;;;1.70;;
22449;SDS011;11392;57.390;-2.468;2023-08-06T12:40:02;1.70;;;1.60;;
22449;SDS011;11392;57.390;-2.468;2023-08-06T12:42:52;1.80;;;1.70;;
22449;SDS011;11392;57.390;-2.468;2023-08-06T12:45:20;2.13;;;1.77;;
22449;SDS011;11392;57.390;-2.468;2023-08-06T12:47:48;1.90;;;1.80;;
22449;SDS011;11392;57.390;-2.468;2023-08-06T12:50:16;1.65;;;1.55;;
22449;SDS011;11392;57.390;-2.468;2023-08-06T12:52:44;1.70;;;1.60;;
22449;SDS011;11392;57.390;-2.468;2023-08-06T12:55:11;1.80;;;1.65;;
22449;SDS011;11392;57.390;-2.468;2023-08-06T12:57:38;1.75;;;1.50;;
22449;SDS011;11392;57.390;-2.468;2023-08-06T13:00:23;1.40;;;1.30;;
22449;SDS011;11392;57.390;-2.468;2023-08-06T13:02:52;1.92;;;1.77;;
22449;SDS011;11392;57.390;-2.468;2023-08-06T13:05:19;1.70;;;1.58;;
22449;SDS011;11392;57.390;-2.468;2023-08-06T13:07:46;1.75;;;1.65;;
22449;SDS011;11392;57.390;-2.468;2023-08-06T13:10:13;1.90;;;1.80;;
22449;SDS011;11392;57.390;-2.468;2023-08-06T13:12:40;1.92;;;1.80;;
22449;SDS011;11392;57.390;-2.468;2023-08-06T13:15:08;2.10;;;1.90;;
22449;SDS011;11392;57.390;-2.468;2023-08-06T13:17:36;2.03;;;1.80;;
22449;SDS011;11392;57.390;-2.468;2023-08-06T13:20:03;2.00;;;1.80;;
22449;SDS011;11392;57.390;-2.468;2023-08-06T13:22:31;1.98;;;1.75;;
22449;SDS011;11392;57.390;-2.468;2023-08-06T13:24:58;1.80;;;1.70;;
22449;SDS011;11392;57.390;-2.468;2023-08-06T13:27:25;2.10;;;1.90;;
22449;SDS011;11392;57.390;-2.468;2023-08-06T13:29:51;1.70;;;1.60;;
22449;SDS011;11392;57.390;-2.468;2023-08-06T13:32:18;1.30;;;1.20;;
22449;SDS011;11392;57.390;-2.468;2023-08-06T13:34:45;1.70;;;1.60;;
22449;SDS011;11392;57.390;-2.468;2023-08-06T13:37:13;1.40;;;1.30;;
22449;SDS011;11392;57.390;-2.468;2023-08-06T13:39:39;1.73;;;1.63;;
22449;SDS011;11392;57.390;-2.468;2023-08-06T13:42:07;1.58;;;1.30;;
22449;SDS011;11392;57.390;-2.468;2023-08-06T13:44:33;1.60;;;1.50;;
22449;SDS011;11392;57.390;-2.468;2023-08-06T13:47:02;1.67;;;1.50;;
22449;SDS011;11392;57.390;-2.468;2023-08-06T13:49:29;1.45;;;1.35;;
22449;SDS011;11392;57.390;-2.468;2023-08-06T13:51:56;1.25;;;1.10;;
22449;SDS011;11392;57.390;-2.468;2023-08-06T13:54:43;2.03;;;1.35;;
22449;SDS011;11392;57.390;-2.468;2023-08-06T13:57:11;2.38;;;1.42;;
22449;SDS011;11392;57.390;-2.468;2023-08-06T13:59:38;1.83;;;1.60;;
22449;SDS011;11392;57.390;-2.468;2023-08-06T14:02:05;1.83;;;1.38;;
22449;SDS011;11392;57.390;-2.468;2023-08-06T14:04:32;1.77;;;1.65;;
22449;SDS011;11392;57.390;-2.468;2023-08-06T14:06:59;2.22;;;1.25;;
22449;SDS011;11392;57.390;-2.468;2023-08-06T14:09:26;1.60;;;1.50;;
22449;SDS011;11392;57.390;-2.468;2023-08-06T14:11:54;1.50;;;1.40;;
22449;SDS011;11392;57.390;-2.468;2023-08-06T14:14:21;1.23;;;1.13;;
22449;SDS011;11392;57.390;-2.468;2023-08-06T14:16:52;1.80;;;1.60;;
22449;SDS011;11392;57.390;-2.468;2023-08-06T14:19:21;1.17;;;1.08;;
22449;SDS011;11392;57.390;-2.468;2023-08-06T14:21:49;1.50;;;1.40;;
22449;SDS011;11392;57.390;-2.468;2023-08-06T14:24:17;1.55;;;1.15;;
22449;SDS011;11392;57.390;-2.468;2023-08-06T14:26:44;1.30;;;1.20;;
22449;SDS011;11392;57.390;-2.468;2023-08-06T14:29:11;1.30;;;1.20;;
22449;SDS011;11392;57.390;-2.468;2023-08-06T14:31:40;1.30;;;1.20;;
22449;SDS011;11392;57.390;-2.468;2023-08-06T14:34:07;1.58;;;1.20;;
22449;SDS011;11392;57.390;-2.468;2023-08-06T14:36:34;1.20;;;1.17;;
22449;SDS011;11392;57.390;-2.468;2023-08-06T14:39:01;1.05;;;0.98;;
22449;SDS011;11392;57.390;-2.468;2023-08-06T14:41:28;1.42;;;1.33;;
22449;SDS011;11392;57.390;-2.468;2023-08-06T14:43:56;1.65;;;1.55;;
22449;SDS011;11392;57.390;-2.468;2023-08-06T14:46:23;2.15;;;1.77;;
22449;SDS011;11392;57.390;-2.468;2023-08-06T14:48:50;1.50;;;1.40;;
22449;SDS011;11392;57.390;-2.468;2023-08-06T14:51:17;2.08;;;1.75;;
22449;SDS011;11392;57.390;-2.468;2023-08-06T14:53:47;1.65;;;1.50;;
22449;SDS011;11392;57.390;-2.468;2023-08-06T14:56:14;1.65;;;1.55;;